createdAt,value
2023-03-20T00:01:02.265Z,2.50
2023-03-20T00:03:30.401Z,2.60
2023-03-20T00:05:58.712Z,2.60
2023-03-20T00:08:29.710Z,2.60
2023-03-20T00:11:00.376Z,2.50
2023-03-20T00:13:29.463Z,2.60
2023-03-20T00:15:57.893Z,2.60
2023-03-20T00:18:26.865Z,2.60
2023-03-20T00:20:55.418Z,2.60
2023-03-20T00:23:23.650Z,2.60
2023-03-20T00:25:53.554Z,2.60
2023-03-20T00:28:42.285Z,2.60
2023-03-20T00:31:21.776Z,2.60
2023-03-20T00:33:50.128Z,2.60
2023-03-20T00:36:18.270Z,2.70
2023-03-20T00:38:46.946Z,2.60
2023-03-20T00:41:24.064Z,2.70
2023-03-20T00:43:56.585Z,2.70
2023-03-20T00:46:25.477Z,2.60
2023-03-20T00:48:54.026Z,2.70
2023-03-20T00:51:22.331Z,2.70
2023-03-20T00:53:50.565Z,2.70
2023-03-20T00:56:33.443Z,2.70
2023-03-20T00:59:05.236Z,2.70
2023-03-20T01:01:34.095Z,2.70
2023-03-20T01:04:02.680Z,2.70
2023-03-20T01:06:31.518Z,2.70
2023-03-20T01:09:00.165Z,2.70
2023-03-20T01:11:29.102Z,2.70
2023-03-20T01:13:57.512Z,2.70
2023-03-20T01:16:28.357Z,2.70
2023-03-20T01:18:57.207Z,2.70
2023-03-20T01:21:25.897Z,2.70
2023-03-20T01:23:54.036Z,2.70
2023-03-20T01:26:26.452Z,2.70
2023-03-20T01:28:55.282Z,2.80
2023-03-20T01:31:23.464Z,2.80
2023-03-20T01:33:53.441Z,2.70
2023-03-20T01:36:24.964Z,2.70
2023-03-20T01:38:56.956Z,2.70
2023-03-20T01:41:27.612Z,2.70
2023-03-20T01:43:55.954Z,2.80
2023-03-20T01:46:26.599Z,2.80
2023-03-20T01:49:48.451Z,2.80
2023-03-20T01:52:16.620Z,2.80
2023-03-20T01:54:45.388Z,2.80
2023-03-20T01:57:18.213Z,2.80
2023-03-20T01:59:51.221Z,2.80
2023-03-20T02:02:23.740Z,2.90
2023-03-20T02:04:58.051Z,2.90
2023-03-20T02:07:26.705Z,2.90
2023-03-20T02:09:55.342Z,2.90
2023-03-20T02:12:23.740Z,2.90
2023-03-20T02:14:53.236Z,3.00
2023-03-20T02:17:21.960Z,3.00
2023-03-20T02:20:05.629Z,3.00
2023-03-20T02:22:55.957Z,3.00
2023-03-20T02:26:06.471Z,3.00
2023-03-20T02:29:16.890Z,3.00
2023-03-20T02:32:34.886Z,3.00
2023-03-20T02:35:39.656Z,3.00
2023-03-20T02:38:30.241Z,3.00
2023-03-20T02:41:04.214Z,3.10
2023-03-20T02:43:43.532Z,3.00
2023-03-20T02:46:24.497Z,3.10
2023-03-20T02:48:58.157Z,3.10
2023-03-20T02:51:32.116Z,3.10
2023-03-20T02:54:09.559Z,3.10
2023-03-20T02:56:48.276Z,3.00
2023-03-20T02:59:23.732Z,3.10
2023-03-20T03:01:58.002Z,3.10
2023-03-20T03:04:30.802Z,3.10
2023-03-20T03:06:59.952Z,3.10
2023-03-20T03:09:33.486Z,3.10
2023-03-20T03:12:06.930Z,3.10
2023-03-20T03:14:38.888Z,3.10
2023-03-20T03:17:09.110Z,3.20
2023-03-20T03:19:40.274Z,3.20
2023-03-20T03:22:08.882Z,3.20
2023-03-20T03:24:41.976Z,3.30
2023-03-20T03:27:18.300Z,3.20
2023-03-20T03:29:51.177Z,3.20
2023-03-20T03:32:29.623Z,3.30
2023-03-20T03:34:58.779Z,3.30
2023-03-20T03:37:39.692Z,3.20
2023-03-20T03:40:19.593Z,3.20
2023-03-20T03:42:55.142Z,3.20
2023-03-20T03:45:30.396Z,3.20
2023-03-20T03:48:03.367Z,3.30
2023-03-20T03:50:36.024Z,3.30
2023-03-20T03:53:09.365Z,3.30
2023-03-20T03:55:44.601Z,3.30
2023-03-20T03:58:16.384Z,3.30
2023-03-20T04:00:47.910Z,3.40
2023-03-20T04:03:17.573Z,3.40
2023-03-20T04:05:47.192Z,3.40
2023-03-20T04:08:17.380Z,3.40
2023-03-20T04:10:47.147Z,3.40
2023-03-20T04:13:16.442Z,3.40
2023-03-20T04:15:44.685Z,3.40
2023-03-20T04:18:17.067Z,3.40
2023-03-20T04:20:45.553Z,3.30
2023-03-20T04:23:14.682Z,3.40
2023-03-20T04:25:43.271Z,3.40
2023-03-20T04:28:16.466Z,3.40
2023-03-20T04:30:48.359Z,3.40
2023-03-20T04:33:16.567Z,3.40
2023-03-20T04:35:45.267Z,3.50
2023-03-20T04:38:13.961Z,3.50
2023-03-20T04:40:42.112Z,3.60
2023-03-20T04:43:12.232Z,3.50
2023-03-20T04:45:41.795Z,3.60
2023-03-20T04:48:10.290Z,3.60
2023-03-20T04:50:38.869Z,3.60
2023-03-20T04:53:07.166Z,3.60
2023-03-20T04:55:35.725Z,3.60
2023-03-20T04:58:04.549Z,3.70
2023-03-20T05:00:34.886Z,3.60
2023-03-20T05:03:03.550Z,3.70
2023-03-20T05:05:32.085Z,3.70
2023-03-20T05:08:01.048Z,3.80
2023-03-20T05:10:29.317Z,3.80
2023-03-20T05:12:58.063Z,3.80
2023-03-20T05:15:26.688Z,3.80
2023-03-20T05:17:56.307Z,3.90
2023-03-20T05:20:24.932Z,3.90
2023-03-20T05:22:53.527Z,3.90
2023-03-20T05:25:22.104Z,3.90
2023-03-20T05:27:50.659Z,3.90
2023-03-20T05:30:19.736Z,3.90
2023-03-20T05:32:50.556Z,3.90
2023-03-20T05:35:21.134Z,3.90
2023-03-20T05:37:49.268Z,4.10
2023-03-20T05:40:19.348Z,4.00
2023-03-20T05:42:48.109Z,4.10
2023-03-20T05:45:16.787Z,4.10
2023-03-20T05:47:45.026Z,4.10
2023-03-20T05:50:15.756Z,4.10
2023-03-20T05:52:48.521Z,4.10
2023-03-20T05:55:17.733Z,4.10
2023-03-20T05:57:46.239Z,4.20
2023-03-20T06:00:15.627Z,4.20
2023-03-20T06:02:47.153Z,4.10
2023-03-20T06:05:15.755Z,4.10
2023-03-20T06:07:46.244Z,4.20
2023-03-20T06:10:14.412Z,4.20
2023-03-20T06:12:42.634Z,4.20
2023-03-20T06:15:11.888Z,4.10
2023-03-20T06:17:40.285Z,4.10
2023-03-20T06:20:10.086Z,4.10
2023-03-20T06:22:38.627Z,4.10
2023-03-20T06:25:09.264Z,4.20
2023-03-20T06:27:37.461Z,4.20
2023-03-20T06:30:07.000Z,4.20
2023-03-20T06:32:35.331Z,4.20
2023-03-20T06:35:05.785Z,4.30
2023-03-20T06:37:34.568Z,4.30
2023-03-20T06:40:03.673Z,4.30
2023-03-20T06:42:33.380Z,4.30
2023-03-20T06:45:02.029Z,4.40
2023-03-20T06:47:30.155Z,4.40
2023-03-20T06:49:58.348Z,4.40
2023-03-20T06:52:27.256Z,4.50
2023-03-20T06:54:56.386Z,4.50
2023-03-20T06:57:24.566Z,4.60
2023-03-20T06:59:54.665Z,4.60
2023-03-20T07:02:23.396Z,4.50
2023-03-20T07:04:52.338Z,4.50
2023-03-20T07:07:20.821Z,4.50
2023-03-20T07:09:49.687Z,4.50
2023-03-20T07:12:19.947Z,4.50
2023-03-20T07:14:48.432Z,4.50
2023-03-20T07:17:18.507Z,4.60
2023-03-20T07:19:46.605Z,4.60
2023-03-20T07:22:22.789Z,4.70
2023-03-20T07:24:51.388Z,4.70
2023-03-20T07:27:20.190Z,4.70
2023-03-20T07:29:49.057Z,4.70
2023-03-20T07:32:18.596Z,4.80
2023-03-20T07:34:47.672Z,4.90
2023-03-20T07:37:16.513Z,4.90
2023-03-20T07:39:44.811Z,5.00
2023-03-20T07:42:13.790Z,5.00
2023-03-20T07:44:42.342Z,5.00
2023-03-20T07:47:10.858Z,5.10
2023-03-20T07:49:41.462Z,5.10
2023-03-20T07:52:10.063Z,5.10
2023-03-20T07:54:38.171Z,5.20
2023-03-20T07:57:06.492Z,5.20
2023-03-20T07:59:34.905Z,5.20
2023-03-20T08:02:03.172Z,5.30
2023-03-20T08:04:31.366Z,5.30
2023-03-20T08:07:01.332Z,5.30
2023-03-20T08:09:29.785Z,5.30
2023-03-20T08:11:58.053Z,5.40
2023-03-20T08:14:26.911Z,5.40
2023-03-20T08:17:12.457Z,5.40
2023-03-20T08:19:43.049Z,5.50
2023-03-20T08:22:12.702Z,5.50
2023-03-20T08:24:41.372Z,5.60
2023-03-20T08:27:09.787Z,5.60
2023-03-20T08:29:38.137Z,5.60
2023-03-20T08:32:06.976Z,5.60
2023-03-20T08:34:35.785Z,5.50
2023-03-20T08:37:05.269Z,5.50
2023-03-20T08:39:35.900Z,5.60
2023-03-20T08:42:05.098Z,5.70
2023-03-20T08:44:33.255Z,5.80
2023-03-20T08:47:01.582Z,5.80
2023-03-20T08:49:30.221Z,5.90
2023-03-20T08:51:58.586Z,6.00
2023-03-20T08:54:27.134Z,6.00
2023-03-20T08:56:57.604Z,6.00
2023-03-20T08:59:25.780Z,6.10
2023-03-20T09:01:54.026Z,6.20
2023-03-20T09:04:22.860Z,6.20
2023-03-20T09:06:51.752Z,6.10
2023-03-20T09:09:21.614Z,6.10
2023-03-20T09:11:50.479Z,6.10
2023-03-20T09:14:20.168Z,6.10
2023-03-20T09:16:48.506Z,6.10
2023-03-20T09:19:18.334Z,6.10
2023-03-20T09:21:46.664Z,5.80
2023-03-20T09:24:14.921Z,5.70
2023-03-20T09:26:44.130Z,5.60
2023-03-20T09:29:12.324Z,5.60
2023-03-20T09:31:41.899Z,5.60
2023-03-20T09:34:10.475Z,5.70
2023-03-20T09:36:38.728Z,5.60
2023-03-20T09:39:06.949Z,5.60
2023-03-20T09:41:49.207Z,5.70
2023-03-20T09:44:46.082Z,5.60
2023-03-20T09:47:24.121Z,5.60
2023-03-20T09:50:09.370Z,5.70
2023-03-20T09:52:42.248Z,5.70
2023-03-20T09:55:17.019Z,5.70
2023-03-20T09:57:48.901Z,5.70
2023-03-20T10:00:20.311Z,5.80
2023-03-20T10:02:54.385Z,5.90
2023-03-20T10:05:26.825Z,5.90
2023-03-20T10:07:57.878Z,5.90
2023-03-20T10:10:33.194Z,6.00
2023-03-20T10:13:12.334Z,6.00
2023-03-20T10:15:48.369Z,6.00
2023-03-20T10:18:26.313Z,6.00
2023-03-20T10:20:59.082Z,6.10
2023-03-20T10:23:34.979Z,6.20
2023-03-20T10:26:08.216Z,6.30
2023-03-20T10:28:41.750Z,6.30
2023-03-20T10:31:31.482Z,6.30
2023-03-20T10:34:22.119Z,6.40
2023-03-20T10:37:06.378Z,6.60
2023-03-20T10:39:51.181Z,6.60
2023-03-20T10:42:22.910Z,6.70
2023-03-20T10:44:56.526Z,6.80
2023-03-20T10:47:27.473Z,6.90
2023-03-20T10:50:02.671Z,7.10
2023-03-20T10:52:34.320Z,7.10
2023-03-20T10:55:07.043Z,7.10
2023-03-20T10:57:42.036Z,7.30
2023-03-20T11:00:19.953Z,7.40
2023-03-20T11:02:48.290Z,7.40
2023-03-20T11:05:27.039Z,7.50
2023-03-20T11:08:04.066Z,7.50
2023-03-20T11:10:34.454Z,7.60
2023-03-20T11:13:16.914Z,7.50
2023-03-20T11:15:45.476Z,7.50
2023-03-20T11:18:16.677Z,7.60
2023-03-20T11:20:51.056Z,7.50
2023-03-20T11:23:21.431Z,7.50
2023-03-20T11:25:53.999Z,7.50
2023-03-20T11:28:38.087Z,7.50
2023-03-20T11:31:16.297Z,7.40
2023-03-20T11:33:46.212Z,7.30
2023-03-20T11:36:27.690Z,7.30
2023-03-20T11:39:02.385Z,7.30
2023-03-20T11:41:31.142Z,7.30
2023-03-20T11:43:59.345Z,7.30
2023-03-20T11:46:27.593Z,7.20
2023-03-20T11:49:08.609Z,7.20
2023-03-20T11:51:39.194Z,7.10
2023-03-20T11:54:16.601Z,7.20
2023-03-20T11:56:54.218Z,7.20
2023-03-20T11:59:23.728Z,7.20
2023-03-20T12:01:54.286Z,7.20
2023-03-20T12:04:29.169Z,7.30
2023-03-20T12:07:04.902Z,7.40
2023-03-20T12:09:40.249Z,7.60
2023-03-20T12:12:16.454Z,7.70
2023-03-20T12:14:51.916Z,7.90
2023-03-20T12:17:43.816Z,8.10
2023-03-20T12:20:27.540Z,8.20
2023-03-20T12:23:03.987Z,8.40
2023-03-20T12:25:40.324Z,8.50
2023-03-20T12:28:19.046Z,8.60
2023-03-20T12:30:59.574Z,8.70
2023-03-20T12:33:39.583Z,8.70
2023-03-20T12:36:14.969Z,8.80
2023-03-20T12:38:45.442Z,8.90
2023-03-20T12:41:16.824Z,8.80
2023-03-20T12:44:19.864Z,8.70
2023-03-20T12:46:57.479Z,8.50
2023-03-20T12:49:35.532Z,8.40
2023-03-20T12:52:11.822Z,8.30
2023-03-20T12:54:57.014Z,8.20
2023-03-20T12:57:32.510Z,8.20
2023-03-20T13:00:16.304Z,8.20
2023-03-20T13:02:57.403Z,8.10
2023-03-20T13:05:34.624Z,8.20
2023-03-20T13:08:34.370Z,8.20
2023-03-20T13:11:09.754Z,8.20
2023-03-20T13:13:46.802Z,8.30
2023-03-20T13:16:21.882Z,8.30
2023-03-20T13:19:00.673Z,8.30
2023-03-20T13:21:36.715Z,8.30
2023-03-20T13:24:21.315Z,8.20
2023-03-20T13:26:58.105Z,8.30
2023-03-20T13:29:31.951Z,8.50
2023-03-20T13:32:11.163Z,8.50
2023-03-20T13:34:56.868Z,8.50
2023-03-20T13:37:31.765Z,8.50
2023-03-20T13:40:07.627Z,8.40
2023-03-20T13:42:42.813Z,8.40
2023-03-20T13:45:32.137Z,8.30
2023-03-20T13:48:05.681Z,8.30
2023-03-20T13:50:43.003Z,8.20
2023-03-20T13:53:20.348Z,8.00
2023-03-20T13:55:56.611Z,7.80
2023-03-20T13:58:54.060Z,7.70
2023-03-20T14:01:30.239Z,7.60
2023-03-20T14:03:59.373Z,7.50
2023-03-20T14:06:54.394Z,7.30
2023-03-20T14:09:34.488Z,7.10
2023-03-20T14:12:08.650Z,6.90
2023-03-20T14:14:45.196Z,6.70
2023-03-20T14:17:21.920Z,6.50
2023-03-20T14:19:51.696Z,6.20
2023-03-20T14:22:22.578Z,6.10
2023-03-20T14:24:57.142Z,6.00
2023-03-20T14:27:43.362Z,5.90
2023-03-20T14:30:43.633Z,5.90
2023-03-20T14:33:31.636Z,5.80
2023-03-20T14:36:19.294Z,5.70
2023-03-20T14:38:55.350Z,5.70
2023-03-20T14:41:30.849Z,5.70
2023-03-20T14:44:09.732Z,5.60
2023-03-20T14:46:52.309Z,5.60
2023-03-20T14:49:31.106Z,5.50
2023-03-20T14:52:04.291Z,5.40
2023-03-20T14:54:33.174Z,5.40
2023-03-20T14:57:11.376Z,5.30
2023-03-20T14:59:40.067Z,5.30
2023-03-20T15:02:26.997Z,5.30
2023-03-20T15:04:56.896Z,5.30
2023-03-20T15:07:28.878Z,5.20
2023-03-20T15:10:03.123Z,5.20
2023-03-20T15:12:35.597Z,5.20
2023-03-20T15:15:06.097Z,5.20
2023-03-20T15:17:40.606Z,5.10
2023-03-20T15:20:16.874Z,5.00
2023-03-20T15:22:52.264Z,5.00
2023-03-20T15:25:22.335Z,4.90
2023-03-20T15:27:51.956Z,4.80
2023-03-20T15:30:23.429Z,4.80
2023-03-20T15:32:56.133Z,4.70
2023-03-20T15:35:27.517Z,4.70
2023-03-20T15:37:58.273Z,4.70
2023-03-20T15:40:40.103Z,4.60
2023-03-20T15:43:15.233Z,4.50
2023-03-20T15:45:45.502Z,4.40
2023-03-20T15:48:17.631Z,4.40
2023-03-20T15:50:50.470Z,4.40
2023-03-20T15:53:20.975Z,4.30
2023-03-20T15:55:51.045Z,4.30
2023-03-20T15:58:20.309Z,4.20
2023-03-20T16:00:50.841Z,4.10
2023-03-20T16:03:23.890Z,4.10
2023-03-20T16:05:53.242Z,4.10
2023-03-20T16:08:25.795Z,4.00
2023-03-20T16:10:58.369Z,4.00
2023-03-20T16:13:27.721Z,3.90
2023-03-20T16:15:56.431Z,3.90
2023-03-20T16:18:26.280Z,3.80
2023-03-20T16:20:58.140Z,3.70
2023-03-20T16:23:34.925Z,3.70
2023-03-20T16:26:06.045Z,3.70
2023-03-20T16:28:38.216Z,3.70
2023-03-20T16:31:10.902Z,3.60
2023-03-20T16:33:42.096Z,3.60
2023-03-20T16:36:14.805Z,3.50
2023-03-20T16:38:56.257Z,3.50
2023-03-20T16:41:31.323Z,3.40
2023-03-20T16:44:00.168Z,3.40
2023-03-20T16:46:29.633Z,3.40
2023-03-20T16:49:08.709Z,3.40
2023-03-20T16:51:37.403Z,3.40
2023-03-20T16:54:05.936Z,3.40
2023-03-20T16:56:37.222Z,3.30
2023-03-20T16:59:09.500Z,3.30
2023-03-20T17:01:43.341Z,3.30
2023-03-20T17:04:20.601Z,3.30
2023-03-20T17:06:50.885Z,3.30
2023-03-20T17:09:23.341Z,3.20
2023-03-20T17:11:58.778Z,3.20
2023-03-20T17:14:27.384Z,3.30
2023-03-20T17:16:57.821Z,3.20
2023-03-20T17:19:27.804Z,3.20
2023-03-20T17:21:57.777Z,3.10
2023-03-20T17:24:26.016Z,3.10
2023-03-20T17:26:57.249Z,3.10
2023-03-20T17:29:25.476Z,3.10
2023-03-20T17:31:53.653Z,3.10
2023-03-20T17:34:22.176Z,3.00
2023-03-20T17:36:52.108Z,3.00
2023-03-20T17:39:22.439Z,3.00
2023-03-20T17:41:51.979Z,3.00
2023-03-20T17:44:20.198Z,3.00
2023-03-20T17:46:57.732Z,3.00
2023-03-20T17:49:28.049Z,2.90
2023-03-20T17:51:57.837Z,3.00
2023-03-20T17:54:26.337Z,3.00
2023-03-20T17:56:54.647Z,3.00
2023-03-20T17:59:22.869Z,3.00
2023-03-20T18:01:51.310Z,2.90
2023-03-20T18:04:19.861Z,2.90
2023-03-20T18:06:49.146Z,2.90
2023-03-20T18:09:18.916Z,2.80
2023-03-20T18:11:47.203Z,2.80
2023-03-20T18:14:18.132Z,2.80
2023-03-20T18:16:46.589Z,2.80
2023-03-20T18:19:23.470Z,2.80
2023-03-20T18:21:51.629Z,2.80
2023-03-20T18:24:21.342Z,2.70
2023-03-20T18:26:50.352Z,2.70
2023-03-20T18:29:18.850Z,2.70
2023-03-20T18:31:47.344Z,2.60
2023-03-20T18:34:16.070Z,2.60
2023-03-20T18:36:45.775Z,2.60
2023-03-20T18:39:18.736Z,2.50
2023-03-20T18:41:48.455Z,2.50
2023-03-20T18:44:17.384Z,2.40
2023-03-20T18:46:46.126Z,2.40
2023-03-20T18:49:17.224Z,2.40
2023-03-20T18:51:46.573Z,2.30
2023-03-20T18:54:14.863Z,2.30
2023-03-20T18:56:43.287Z,2.20
2023-03-20T18:59:14.389Z,2.10
2023-03-20T19:01:42.644Z,2.10
2023-03-20T19:04:11.250Z,2.00
2023-03-20T19:06:40.058Z,1.90
2023-03-20T19:09:10.887Z,1.80
2023-03-20T19:11:39.271Z,1.70
2023-03-20T19:14:07.900Z,1.60
2023-03-20T19:16:38.496Z,1.50
2023-03-20T19:19:09.168Z,1.50
2023-03-20T19:21:37.329Z,1.40
2023-03-20T19:24:07.502Z,1.50
2023-03-20T19:26:38.447Z,1.50
2023-03-20T19:29:09.063Z,1.60
2023-03-20T19:31:39.472Z,1.80
2023-03-20T19:34:08.025Z,1.90
2023-03-20T19:36:37.837Z,1.90
2023-03-20T19:39:08.836Z,2.00
2023-03-20T19:41:37.335Z,2.00
2023-03-20T19:44:06.580Z,2.10
2023-03-20T19:46:40.326Z,2.00
2023-03-20T19:49:19.072Z,2.10
2023-03-20T19:51:49.429Z,2.10
2023-03-20T19:54:17.642Z,2.10
2023-03-20T19:56:45.781Z,2.10
2023-03-20T19:59:16.756Z,2.10
2023-03-20T20:01:46.773Z,2.10
2023-03-20T20:04:17.266Z,2.10
2023-03-20T20:06:47.391Z,2.10
2023-03-20T20:09:16.307Z,2.00
2023-03-20T20:11:45.364Z,2.00
2023-03-20T20:14:15.080Z,2.00
2023-03-20T20:16:45.618Z,2.00
2023-03-20T20:19:14.078Z,2.00
2023-03-20T20:22:19.616Z,2.00
2023-03-20T20:24:33.077Z,2.00
2023-03-20T20:27:18.412Z,2.00
2023-03-20T20:29:50.263Z,2.00
2023-03-20T20:32:20.103Z,2.00
2023-03-20T20:40:31.637Z,1.90
2023-03-20T20:43:02.660Z,1.90
2023-03-20T20:45:32.390Z,1.90
2023-03-20T20:48:01.844Z,1.90
2023-03-20T20:50:33.025Z,1.90
2023-03-20T20:53:03.429Z,1.90
2023-03-20T20:55:31.900Z,1.90
2023-03-20T20:58:01.669Z,1.80
2023-03-20T21:00:48.428Z,1.80
2023-03-20T21:03:19.748Z,1.70
2023-03-20T21:05:48.078Z,1.70
2023-03-20T21:08:18.945Z,1.60
2023-03-20T21:10:47.767Z,1.60
2023-03-20T21:13:16.665Z,1.50
2023-03-20T21:15:45.861Z,1.50
2023-03-20T21:18:14.353Z,1.40
2023-03-20T21:20:42.577Z,1.40
2023-03-20T21:23:11.294Z,1.40
2023-03-20T21:25:44.672Z,1.30
2023-03-20T21:28:14.866Z,1.30
2023-03-20T21:31:00.054Z,1.30
2023-03-20T21:33:32.692Z,1.30
2023-03-20T21:36:01.313Z,1.30
2023-03-20T21:41:19.480Z,1.30
2023-03-20T21:43:47.823Z,1.30
2023-03-20T21:46:56.647Z,1.30
2023-03-20T21:55:16.239Z,1.30
2023-03-20T22:03:29.106Z,1.10
2023-03-20T22:15:18.435Z,1.00
2023-03-20T22:17:53.128Z,1.00
2023-03-20T22:32:16.211Z,1.00
2023-03-20T22:34:55.247Z,0.90
2023-03-20T22:40:48.690Z,0.90
2023-03-20T22:43:14.952Z,0.80
2023-03-20T22:45:42.545Z,0.80
2023-03-20T22:48:12.995Z,0.80
2023-03-20T22:50:41.644Z,0.90
2023-03-20T22:53:09.976Z,0.90
2023-03-20T22:55:38.249Z,0.90
2023-03-20T22:58:08.326Z,0.90
2023-03-20T23:00:37.507Z,1.00
2023-03-20T23:03:17.542Z,0.90
2023-03-20T23:05:50.266Z,0.90
2023-03-20T23:08:19.232Z,0.90
2023-03-20T23:10:49.559Z,0.90
2023-03-20T23:13:20.402Z,0.90
2023-03-20T23:15:50.632Z,0.90
2023-03-20T23:18:19.299Z,0.90
2023-03-20T23:20:47.450Z,0.90
2023-03-20T23:23:17.032Z,0.90
2023-03-20T23:25:45.570Z,0.90
2023-03-20T23:28:13.911Z,0.80
2023-03-20T23:30:48.060Z,0.90
2023-03-20T23:33:22.919Z,0.90
2023-03-20T23:36:01.185Z,0.90
2023-03-20T23:38:38.666Z,0.90
2023-03-20T23:41:07.288Z,0.90
2023-03-20T23:43:35.398Z,0.90
2023-03-20T23:46:04.036Z,0.90
2023-03-20T23:48:32.219Z,0.90
2023-03-20T23:51:00.436Z,1.00
2023-03-20T23:53:28.843Z,0.90
2023-03-20T23:55:58.935Z,0.90
2023-03-20T23:58:28.108Z,1.00
